sensor_id;sensor_type;location;lat;lon;timestamp;P1;durP1;ratioP1;P2;durP2;ratioP2
9422;SDS011;65863;49.506;10.400;2024-02-28T00:02:01;27.27;;;18.50;;
9422;SDS011;65863;49.506;10.400;2024-02-28T00:04:45;26.43;;;17.90;;
9422;SDS011;65863;49.506;10.400;2024-02-28T00:07:29;27.57;;;18.47;;
9422;SDS011;65863;49.506;10.400;2024-02-28T00:10:14;24.73;;;16.80;;
9422;SDS011;65863;49.506;10.400;2024-02-28T00:12:58;24.37;;;17.30;;
9422;SDS011;65863;49.506;10.400;2024-02-28T00:15:45;25.43;;;17.10;;
9422;SDS011;65863;49.506;10.400;2024-02-28T00:18:29;26.93;;;16.73;;
9422;SDS011;65863;49.506;10.400;2024-02-28T00:21:16;26.40;;;18.43;;
9422;SDS011;65863;49.506;10.400;2024-02-28T00:24:01;26.77;;;17.80;;
9422;SDS011;65863;49.506;10.400;2024-02-28T00:26:47;28.43;;;18.83;;
9422;SDS011;65863;49.506;10.400;2024-02-28T00:29:32;27.03;;;18.47;;
9422;SDS011;65863;49.506;10.400;2024-02-28T00:32:16;24.80;;;17.47;;
9422;SDS011;65863;49.506;10.400;2024-02-28T00:35:00;24.77;;;17.00;;
9422;SDS011;65863;49.506;10.400;2024-02-28T00:37:44;27.03;;;18.33;;
9422;SDS011;65863;49.506;10.400;2024-02-28T00:40:28;25.83;;;18.23;;
9422;SDS011;65863;49.506;10.400;2024-02-28T00:43:12;26.17;;;17.83;;
9422;SDS011;65863;49.506;10.400;2024-02-28T00:45:56;25.67;;;17.20;;
9422;SDS011;65863;49.506;10.400;2024-02-28T00:48:46;25.87;;;18.13;;
9422;SDS011;65863;49.506;10.400;2024-02-28T00:51:30;26.47;;;18.07;;
9422;SDS011;65863;49.506;10.400;2024-02-28T00:54:14;24.93;;;17.93;;
9422;SDS011;65863;49.506;10.400;2024-02-28T00:56:58;20.63;;;16.53;;
9422;SDS011;65863;49.506;10.400;2024-02-28T00:59:43;24.90;;;18.23;;
9422;SDS011;65863;49.506;10.400;2024-02-28T01:02:28;26.20;;;16.93;;
9422;SDS011;65863;49.506;10.400;2024-02-28T01:05:12;25.00;;;17.30;;
9422;SDS011;65863;49.506;10.400;2024-02-28T01:07:58;26.60;;;17.90;;
9422;SDS011;65863;49.506;10.400;2024-02-28T01:10:41;25.03;;;17.43;;
9422;SDS011;65863;49.506;10.400;2024-02-28T01:13:25;24.77;;;17.27;;
9422;SDS011;65863;49.506;10.400;2024-02-28T01:16:09;30.17;;;19.37;;
9422;SDS011;65863;49.506;10.400;2024-02-28T01:18:53;23.43;;;17.07;;
9422;SDS011;65863;49.506;10.400;2024-02-28T01:21:38;27.37;;;18.70;;
9422;SDS011;65863;49.506;10.400;2024-02-28T01:24:24;26.07;;;17.13;;
9422;SDS011;65863;49.506;10.400;2024-02-28T01:27:08;26.13;;;17.70;;
9422;SDS011;65863;49.506;10.400;2024-02-28T01:29:53;24.03;;;17.10;;
9422;SDS011;65863;49.506;10.400;2024-02-28T01:32:39;24.13;;;16.97;;
9422;SDS011;65863;49.506;10.400;2024-02-28T01:35:23;24.83;;;16.83;;
9422;SDS011;65863;49.506;10.400;2024-02-28T01:38:07;25.97;;;18.03;;
9422;SDS011;65863;49.506;10.400;2024-02-28T01:40:51;24.27;;;17.77;;
9422;SDS011;65863;49.506;10.400;2024-02-28T01:43:35;23.03;;;16.90;;
9422;SDS011;65863;49.506;10.400;2024-02-28T01:46:24;23.87;;;17.03;;
9422;SDS011;65863;49.506;10.400;2024-02-28T01:49:10;24.17;;;16.43;;
9422;SDS011;65863;49.506;10.400;2024-02-28T01:51:55;24.00;;;16.33;;
9422;SDS011;65863;49.506;10.400;2024-02-28T01:54:40;21.43;;;15.87;;
9422;SDS011;65863;49.506;10.400;2024-02-28T01:57:25;23.57;;;16.87;;
9422;SDS011;65863;49.506;10.400;2024-02-28T02:00:11;22.37;;;16.30;;
9422;SDS011;65863;49.506;10.400;2024-02-28T02:02:57;23.13;;;17.50;;
9422;SDS011;65863;49.506;10.400;2024-02-28T02:05:43;24.87;;;17.83;;
9422;SDS011;65863;49.506;10.400;2024-02-28T02:08:27;26.00;;;17.70;;
9422;SDS011;65863;49.506;10.400;2024-02-28T02:11:12;23.93;;;17.03;;
9422;SDS011;65863;49.506;10.400;2024-02-28T02:13:58;23.60;;;17.20;;
9422;SDS011;65863;49.506;10.400;2024-02-28T02:16:42;26.70;;;18.30;;
9422;SDS011;65863;49.506;10.400;2024-02-28T02:19:27;26.40;;;17.97;;
9422;SDS011;65863;49.506;10.400;2024-02-28T02:22:12;25.93;;;17.83;;
9422;SDS011;65863;49.506;10.400;2024-02-28T02:24:57;22.90;;;16.53;;
9422;SDS011;65863;49.506;10.400;2024-02-28T02:27:41;24.13;;;17.03;;
9422;SDS011;65863;49.506;10.400;2024-02-28T02:30:25;24.03;;;16.83;;
9422;SDS011;65863;49.506;10.400;2024-02-28T02:33:09;23.50;;;16.50;;
9422;SDS011;65863;49.506;10.400;2024-02-28T02:35:54;25.43;;;17.40;;
9422;SDS011;65863;49.506;10.400;2024-02-28T02:38:39;22.50;;;16.17;;
9422;SDS011;65863;49.506;10.400;2024-02-28T02:41:23;24.77;;;16.83;;
9422;SDS011;65863;49.506;10.400;2024-02-28T02:44:07;25.63;;;16.30;;
9422;SDS011;65863;49.506;10.400;2024-02-28T02:46:52;25.63;;;17.33;;
9422;SDS011;65863;49.506;10.400;2024-02-28T02:49:36;23.60;;;16.30;;
9422;SDS011;65863;49.506;10.400;2024-02-28T02:52:21;23.90;;;16.53;;
9422;SDS011;65863;49.506;10.400;2024-02-28T02:55:06;25.10;;;16.83;;
9422;SDS011;65863;49.506;10.400;2024-02-28T02:57:50;23.50;;;15.60;;
9422;SDS011;65863;49.506;10.400;2024-02-28T03:00:36;23.20;;;16.33;;
9422;SDS011;65863;49.506;10.400;2024-02-28T03:03:20;21.70;;;16.07;;
9422;SDS011;65863;49.506;10.400;2024-02-28T03:06:05;21.40;;;15.97;;
9422;SDS011;65863;49.506;10.400;2024-02-28T03:08:50;23.13;;;16.60;;
9422;SDS011;65863;49.506;10.400;2024-02-28T03:11:36;23.37;;;16.50;;
9422;SDS011;65863;49.506;10.400;2024-02-28T03:14:20;25.80;;;17.30;;
9422;SDS011;65863;49.506;10.400;2024-02-28T03:17:08;25.40;;;16.53;;
9422;SDS011;65863;49.506;10.400;2024-02-28T03:19:53;24.10;;;17.07;;
9422;SDS011;65863;49.506;10.400;2024-02-28T03:22:37;21.17;;;15.87;;
9422;SDS011;65863;49.506;10.400;2024-02-28T03:25:22;22.70;;;15.83;;
9422;SDS011;65863;49.506;10.400;2024-02-28T03:28:06;23.83;;;15.87;;
9422;SDS011;65863;49.506;10.400;2024-02-28T03:30:50;24.07;;;15.57;;
9422;SDS011;65863;49.506;10.400;2024-02-28T03:33:35;25.17;;;16.87;;
9422;SDS011;65863;49.506;10.400;2024-02-28T03:36:19;24.90;;;16.73;;
9422;SDS011;65863;49.506;10.400;2024-02-28T03:39:03;26.47;;;17.70;;
9422;SDS011;65863;49.506;10.400;2024-02-28T03:41:47;23.73;;;16.87;;
9422;SDS011;65863;49.506;10.400;2024-02-28T03:44:31;23.30;;;16.13;;
9422;SDS011;65863;49.506;10.400;2024-02-28T03:47:15;24.83;;;17.17;;
9422;SDS011;65863;49.506;10.400;2024-02-28T03:49:59;24.27;;;16.43;;
9422;SDS011;65863;49.506;10.400;2024-02-28T03:52:48;25.10;;;17.13;;
9422;SDS011;65863;49.506;10.400;2024-02-28T03:55:33;26.03;;;17.60;;
9422;SDS011;65863;49.506;10.400;2024-02-28T03:58:17;28.13;;;17.73;;
9422;SDS011;65863;49.506;10.400;2024-02-28T04:01:01;26.13;;;17.13;;
9422;SDS011;65863;49.506;10.400;2024-02-28T04:03:46;25.70;;;17.43;;
9422;SDS011;65863;49.506;10.400;2024-02-28T04:06:31;23.37;;;16.27;;
9422;SDS011;65863;49.506;10.400;2024-02-28T04:09:14;22.83;;;17.03;;
9422;SDS011;65863;49.506;10.400;2024-02-28T04:11:58;25.87;;;18.40;;
9422;SDS011;65863;49.506;10.400;2024-02-28T04:14:42;25.23;;;17.17;;
9422;SDS011;65863;49.506;10.400;2024-02-28T04:17:26;21.90;;;16.07;;
9422;SDS011;65863;49.506;10.400;2024-02-28T04:20:11;23.80;;;17.10;;
9422;SDS011;65863;49.506;10.400;2024-02-28T04:22:55;25.67;;;17.03;;
9422;SDS011;65863;49.506;10.400;2024-02-28T04:25:39;24.50;;;17.40;;
9422;SDS011;65863;49.506;10.400;2024-02-28T04:28:24;28.40;;;16.93;;
9422;SDS011;65863;49.506;10.400;2024-02-28T04:31:08;22.57;;;16.13;;
9422;SDS011;65863;49.506;10.400;2024-02-28T04:33:53;26.80;;;17.30;;
9422;SDS011;65863;49.506;10.400;2024-02-28T04:36:36;24.60;;;16.30;;
9422;SDS011;65863;49.506;10.400;2024-02-28T04:39:20;24.37;;;16.37;;
9422;SDS011;65863;49.506;10.400;2024-02-28T04:42:04;24.90;;;15.90;;
9422;SDS011;65863;49.506;10.400;2024-02-28T04:44:50;24.30;;;16.80;;
9422;SDS011;65863;49.506;10.400;2024-02-28T04:47:34;25.90;;;16.03;;
9422;SDS011;65863;49.506;10.400;2024-02-28T04:50:18;23.93;;;16.43;;
9422;SDS011;65863;49.506;10.400;2024-02-28T04:53:02;25.37;;;16.53;;
9422;SDS011;65863;49.506;10.400;2024-02-28T04:55:47;22.90;;;16.30;;
9422;SDS011;65863;49.506;10.400;2024-02-28T04:58:31;29.77;;;16.33;;
9422;SDS011;65863;49.506;10.400;2024-02-28T05:01:16;24.77;;;16.37;;
9422;SDS011;65863;49.506;10.400;2024-02-28T05:04:03;24.17;;;16.20;;
9422;SDS011;65863;49.506;10.400;2024-02-28T05:06:47;24.73;;;16.10;;
9422;SDS011;65863;49.506;10.400;2024-02-28T05:09:31;25.13;;;16.93;;
9422;SDS011;65863;49.506;10.400;2024-02-28T05:12:15;24.37;;;16.47;;
9422;SDS011;65863;49.506;10.400;2024-02-28T05:14:59;27.43;;;16.30;;
9422;SDS011;65863;49.506;10.400;2024-02-28T05:17:45;24.63;;;16.47;;
9422;SDS011;65863;49.506;10.400;2024-02-28T05:20:29;25.63;;;17.07;;
9422;SDS011;65863;49.506;10.400;2024-02-28T05:23:13;26.80;;;17.60;;
9422;SDS011;65863;49.506;10.400;2024-02-28T05:25:59;25.90;;;17.27;;
9422;SDS011;65863;49.506;10.400;2024-02-28T05:28:47;24.37;;;16.70;;
9422;SDS011;65863;49.506;10.400;2024-02-28T05:31:32;27.13;;;17.77;;
9422;SDS011;65863;49.506;10.400;2024-02-28T05:34:16;27.63;;;17.33;;
9422;SDS011;65863;49.506;10.400;2024-02-28T05:37:00;24.83;;;17.53;;
9422;SDS011;65863;49.506;10.400;2024-02-28T05:39:47;28.27;;;18.10;;
9422;SDS011;65863;49.506;10.400;2024-02-28T05:42:31;26.00;;;17.60;;
9422;SDS011;65863;49.506;10.400;2024-02-28T05:45:15;26.85;;;21.15;;
9422;SDS011;65863;49.506;10.400;2024-02-28T05:47:59;24.47;;;17.47;;
9422;SDS011;65863;49.506;10.400;2024-02-28T05:50:43;25.33;;;16.97;;
9422;SDS011;65863;49.506;10.400;2024-02-28T05:53:28;22.00;;;16.03;;
9422;SDS011;65863;49.506;10.400;2024-02-28T05:56:16;26.30;;;17.23;;
9422;SDS011;65863;49.506;10.400;2024-02-28T05:59:03;22.93;;;17.10;;
9422;SDS011;65863;49.506;10.400;2024-02-28T06:01:47;24.37;;;17.03;;
9422;SDS011;65863;49.506;10.400;2024-02-28T06:04:31;24.33;;;16.40;;
9422;SDS011;65863;49.506;10.400;2024-02-28T06:07:15;24.03;;;16.83;;
9422;SDS011;65863;49.506;10.400;2024-02-28T06:10:00;21.63;;;15.83;;
9422;SDS011;65863;49.506;10.400;2024-02-28T06:12:45;25.88;;;20.38;;
9422;SDS011;65863;49.506;10.400;2024-02-28T06:15:29;26.00;;;18.30;;
9422;SDS011;65863;49.506;10.400;2024-02-28T06:18:14;25.70;;;17.13;;
9422;SDS011;65863;49.506;10.400;2024-02-28T06:20:58;24.87;;;16.23;;
9422;SDS011;65863;49.506;10.400;2024-02-28T06:23:43;21.27;;;15.83;;
9422;SDS011;65863;49.506;10.400;2024-02-28T06:26:27;23.43;;;16.33;;
9422;SDS011;65863;49.506;10.400;2024-02-28T06:29:11;24.70;;;16.80;;
9422;SDS011;65863;49.506;10.400;2024-02-28T06:31:55;23.13;;;16.27;;
9422;SDS011;65863;49.506;10.400;2024-02-28T06:34:39;22.53;;;16.27;;
9422;SDS011;65863;49.506;10.400;2024-02-28T06:37:23;23.40;;;16.87;;
9422;SDS011;65863;49.506;10.400;2024-02-28T06:40:09;23.90;;;16.80;;
9422;SDS011;65863;49.506;10.400;2024-02-28T06:42:53;24.53;;;16.43;;
9422;SDS011;65863;49.506;10.400;2024-02-28T06:45:37;21.43;;;15.67;;
9422;SDS011;65863;49.506;10.400;2024-02-28T06:48:22;20.20;;;15.37;;
9422;SDS011;65863;49.506;10.400;2024-02-28T06:51:08;22.10;;;16.37;;
9422;SDS011;65863;49.506;10.400;2024-02-28T06:53:52;20.50;;;14.60;;
9422;SDS011;65863;49.506;10.400;2024-02-28T06:56:36;21.67;;;14.93;;
9422;SDS011;65863;49.506;10.400;2024-02-28T06:59:20;21.30;;;15.30;;
9422;SDS011;65863;49.506;10.400;2024-02-28T07:02:04;18.70;;;14.53;;
9422;SDS011;65863;49.506;10.400;2024-02-28T07:04:49;18.47;;;13.80;;
9422;SDS011;65863;49.506;10.400;2024-02-28T07:07:33;19.57;;;13.97;;
9422;SDS011;65863;49.506;10.400;2024-02-28T07:10:17;17.43;;;12.93;;
9422;SDS011;65863;49.506;10.400;2024-02-28T07:13:03;18.23;;;12.70;;
9422;SDS011;65863;49.506;10.400;2024-02-28T07:15:48;16.47;;;13.03;;
9422;SDS011;65863;49.506;10.400;2024-02-28T07:18:32;17.20;;;13.03;;
9422;SDS011;65863;49.506;10.400;2024-02-28T07:21:16;15.30;;;12.13;;
9422;SDS011;65863;49.506;10.400;2024-02-28T07:24:00;18.07;;;12.57;;
9422;SDS011;65863;49.506;10.400;2024-02-28T07:26:45;17.57;;;12.40;;
9422;SDS011;65863;49.506;10.400;2024-02-28T07:29:30;14.87;;;11.83;;
9422;SDS011;65863;49.506;10.400;2024-02-28T07:32:15;16.87;;;12.63;;
9422;SDS011;65863;49.506;10.400;2024-02-28T07:35:01;15.60;;;11.57;;
9422;SDS011;65863;49.506;10.400;2024-02-28T07:37:45;14.80;;;11.70;;
9422;SDS011;65863;49.506;10.400;2024-02-28T07:40:31;15.23;;;11.63;;
9422;SDS011;65863;49.506;10.400;2024-02-28T07:43:15;14.30;;;10.43;;
9422;SDS011;65863;49.506;10.400;2024-02-28T07:45:59;15.07;;;11.60;;
9422;SDS011;65863;49.506;10.400;2024-02-28T07:48:43;13.93;;;10.77;;
9422;SDS011;65863;49.506;10.400;2024-02-28T07:51:28;15.60;;;11.77;;
9422;SDS011;65863;49.506;10.400;2024-02-28T07:54:12;15.80;;;11.40;;
9422;SDS011;65863;49.506;10.400;2024-02-28T07:56:56;12.47;;;9.97;;
9422;SDS011;65863;49.506;10.400;2024-02-28T07:59:41;14.37;;;10.60;;
9422;SDS011;65863;49.506;10.400;2024-02-28T08:02:26;13.73;;;10.53;;
9422;SDS011;65863;49.506;10.400;2024-02-28T08:05:10;15.77;;;11.30;;
9422;SDS011;65863;49.506;10.400;2024-02-28T08:07:57;14.07;;;10.90;;
9422;SDS011;65863;49.506;10.400;2024-02-28T08:10:41;13.23;;;10.30;;
9422;SDS011;65863;49.506;10.400;2024-02-28T08:13:30;13.80;;;10.70;;
9422;SDS011;65863;49.506;10.400;2024-02-28T08:16:16;13.07;;;9.87;;
9422;SDS011;65863;49.506;10.400;2024-02-28T08:19:00;15.57;;;11.03;;
9422;SDS011;65863;49.506;10.400;2024-02-28T08:21:44;13.83;;;10.87;;
9422;SDS011;65863;49.506;10.400;2024-02-28T08:24:28;13.73;;;10.17;;
9422;SDS011;65863;49.506;10.400;2024-02-28T08:27:12;15.20;;;11.00;;
9422;SDS011;65863;49.506;10.400;2024-02-28T08:29:56;15.27;;;11.53;;
9422;SDS011;65863;49.506;10.400;2024-02-28T08:32:41;12.77;;;10.73;;
9422;SDS011;65863;49.506;10.400;2024-02-28T08:35:25;13.93;;;10.20;;
9422;SDS011;65863;49.506;10.400;2024-02-28T08:38:10;13.33;;;10.70;;
9422;SDS011;65863;49.506;10.400;2024-02-28T08:40:54;16.60;;;11.40;;
9422;SDS011;65863;49.506;10.400;2024-02-28T08:43:39;14.63;;;10.33;;
9422;SDS011;65863;49.506;10.400;2024-02-28T08:46:24;15.30;;;11.47;;
9422;SDS011;65863;49.506;10.400;2024-02-28T08:49:08;15.10;;;11.17;;
9422;SDS011;65863;49.506;10.400;2024-02-28T08:51:52;16.33;;;10.60;;
9422;SDS011;65863;49.506;10.400;2024-02-28T08:54:38;15.73;;;11.20;;
9422;SDS011;65863;49.506;10.400;2024-02-28T08:57:24;16.00;;;11.33;;
9422;SDS011;65863;49.506;10.400;2024-02-28T09:00:08;16.17;;;11.37;;
9422;SDS011;65863;49.506;10.400;2024-02-28T09:02:53;16.70;;;11.50;;
9422;SDS011;65863;49.506;10.400;2024-02-28T09:05:37;14.57;;;10.83;;
9422;SDS011;65863;49.506;10.400;2024-02-28T09:08:22;15.37;;;11.40;;
9422;SDS011;65863;49.506;10.400;2024-02-28T09:11:06;13.70;;;11.13;;
9422;SDS011;65863;49.506;10.400;2024-02-28T09:13:50;15.50;;;11.43;;
9422;SDS011;65863;49.506;10.400;2024-02-28T09:16:34;16.27;;;12.43;;
9422;SDS011;65863;49.506;10.400;2024-02-28T09:19:18;18.20;;;13.13;;
9422;SDS011;65863;49.506;10.400;2024-02-28T09:22:02;20.13;;;13.33;;
9422;SDS011;65863;49.506;10.400;2024-02-28T09:24:46;19.27;;;12.60;;
9422;SDS011;65863;49.506;10.400;2024-02-28T09:27:31;17.57;;;12.57;;
9422;SDS011;65863;49.506;10.400;2024-02-28T09:30:16;18.23;;;13.00;;
9422;SDS011;65863;49.506;10.400;2024-02-28T09:33:01;19.77;;;13.43;;
9422;SDS011;65863;49.506;10.400;2024-02-28T09:35:45;18.27;;;13.27;;
9422;SDS011;65863;49.506;10.400;2024-02-28T09:38:30;17.50;;;13.00;;
9422;SDS011;65863;49.506;10.400;2024-02-28T09:41:15;15.40;;;11.93;;
9422;SDS011;65863;49.506;10.400;2024-02-28T09:44:02;18.33;;;12.23;;
9422;SDS011;65863;49.506;10.400;2024-02-28T09:46:46;17.93;;;12.93;;
9422;SDS011;65863;49.506;10.400;2024-02-28T09:49:34;17.37;;;12.47;;
9422;SDS011;65863;49.506;10.400;2024-02-28T09:52:21;16.07;;;12.20;;
9422;SDS011;65863;49.506;10.400;2024-02-28T09:55:05;17.87;;;12.60;;
9422;SDS011;65863;49.506;10.400;2024-02-28T09:57:50;14.47;;;11.13;;
9422;SDS011;65863;49.506;10.400;2024-02-28T10:00:36;15.70;;;11.50;;
9422;SDS011;65863;49.506;10.400;2024-02-28T10:03:21;15.87;;;12.00;;
9422;SDS011;65863;49.506;10.400;2024-02-28T10:06:10;17.33;;;11.90;;
9422;SDS011;65863;49.506;10.400;2024-02-28T10:08:55;18.23;;;12.27;;
9422;SDS011;65863;49.506;10.400;2024-02-28T10:11:41;16.53;;;11.90;;
9422;SDS011;65863;49.506;10.400;2024-02-28T10:14:27;14.87;;;11.10;;
9422;SDS011;65863;49.506;10.400;2024-02-28T10:17:11;15.90;;;11.27;;
9422;SDS011;65863;49.506;10.400;2024-02-28T10:19:57;15.60;;;11.90;;
9422;SDS011;65863;49.506;10.400;2024-02-28T10:22:41;15.90;;;11.33;;
9422;SDS011;65863;49.506;10.400;2024-02-28T10:25:25;15.47;;;11.47;;
9422;SDS011;65863;49.506;10.400;2024-02-28T10:28:10;14.90;;;11.20;;
9422;SDS011;65863;49.506;10.400;2024-02-28T10:30:54;15.77;;;11.70;;
9422;SDS011;65863;49.506;10.400;2024-02-28T10:33:41;16.47;;;11.87;;
9422;SDS011;65863;49.506;10.400;2024-02-28T10:36:25;13.37;;;10.33;;
9422;SDS011;65863;49.506;10.400;2024-02-28T10:39:11;16.43;;;11.03;;
9422;SDS011;65863;49.506;10.400;2024-02-28T10:41:55;13.90;;;10.33;;
9422;SDS011;65863;49.506;10.400;2024-02-28T10:44:41;14.17;;;10.70;;
9422;SDS011;65863;49.506;10.400;2024-02-28T10:47:26;14.47;;;10.57;;
9422;SDS011;65863;49.506;10.400;2024-02-28T10:50:10;15.43;;;11.80;;
9422;SDS011;65863;49.506;10.400;2024-02-28T10:52:54;15.33;;;11.20;;
9422;SDS011;65863;49.506;10.400;2024-02-28T10:55:47;13.03;;;10.83;;
9422;SDS011;65863;49.506;10.400;2024-02-28T10:58:36;17.03;;;11.60;;
9422;SDS011;65863;49.506;10.400;2024-02-28T11:01:22;16.23;;;10.63;;
9422;SDS011;65863;49.506;10.400;2024-02-28T11:04:07;13.90;;;10.90;;
9422;SDS011;65863;49.506;10.400;2024-02-28T11:06:53;12.80;;;9.63;;
9422;SDS011;65863;49.506;10.400;2024-02-28T11:09:42;13.20;;;10.33;;
9422;SDS011;65863;49.506;10.400;2024-02-28T11:12:28;14.77;;;10.17;;
9422;SDS011;65863;49.506;10.400;2024-02-28T11:15:16;14.70;;;11.60;;
9422;SDS011;65863;49.506;10.400;2024-02-28T11:18:07;14.90;;;10.60;;
9422;SDS011;65863;49.506;10.400;2024-02-28T11:20:55;12.67;;;10.33;;
9422;SDS011;65863;49.506;10.400;2024-02-28T11:23:40;13.73;;;10.33;;
9422;SDS011;65863;49.506;10.400;2024-02-28T11:26:24;13.07;;;10.43;;
9422;SDS011;65863;49.506;10.400;2024-02-28T11:29:10;14.17;;;10.30;;
9422;SDS011;65863;49.506;10.400;2024-02-28T11:31:55;13.67;;;10.57;;
9422;SDS011;65863;49.506;10.400;2024-02-28T11:34:41;13.13;;;9.77;;
9422;SDS011;65863;49.506;10.400;2024-02-28T11:37:25;11.17;;;9.60;;
9422;SDS011;65863;49.506;10.400;2024-02-28T11:40:10;14.27;;;9.13;;
9422;SDS011;65863;49.506;10.400;2024-02-28T11:42:55;11.73;;;9.43;;
9422;SDS011;65863;49.506;10.400;2024-02-28T11:45:43;11.90;;;8.90;;
9422;SDS011;65863;49.506;10.400;2024-02-28T11:48:28;14.47;;;9.83;;
9422;SDS011;65863;49.506;10.400;2024-02-28T11:51:12;9.17;;;8.00;;
9422;SDS011;65863;49.506;10.400;2024-02-28T11:53:56;10.03;;;8.40;;
9422;SDS011;65863;49.506;10.400;2024-02-28T11:56:40;10.70;;;8.23;;
9422;SDS011;65863;49.506;10.400;2024-02-28T11:59:24;9.40;;;8.33;;
9422;SDS011;65863;49.506;10.400;2024-02-28T12:02:11;10.37;;;8.87;;
9422;SDS011;65863;49.506;10.400;2024-02-28T12:05:01;9.73;;;8.40;;
9422;SDS011;65863;49.506;10.400;2024-02-28T12:07:50;9.83;;;8.37;;
9422;SDS011;65863;49.506;10.400;2024-02-28T12:10:38;10.93;;;8.10;;
9422;SDS011;65863;49.506;10.400;2024-02-28T12:13:24;11.10;;;8.93;;
9422;SDS011;65863;49.506;10.400;2024-02-28T12:16:08;11.03;;;8.67;;
9422;SDS011;65863;49.506;10.400;2024-02-28T12:18:53;8.93;;;8.03;;
9422;SDS011;65863;49.506;10.400;2024-02-28T12:21:37;9.03;;;7.57;;
9422;SDS011;65863;49.506;10.400;2024-02-28T12:24:22;12.53;;;9.23;;
9422;SDS011;65863;49.506;10.400;2024-02-28T12:27:07;9.77;;;7.80;;
9422;SDS011;65863;49.506;10.400;2024-02-28T12:29:51;10.43;;;7.83;;
9422;SDS011;65863;49.506;10.400;2024-02-28T12:32:35;9.47;;;8.00;;
9422;SDS011;65863;49.506;10.400;2024-02-28T12:35:20;10.90;;;8.13;;
9422;SDS011;65863;49.506;10.400;2024-02-28T12:38:04;9.77;;;8.10;;
9422;SDS011;65863;49.506;10.400;2024-02-28T12:40:49;9.10;;;8.10;;
9422;SDS011;65863;49.506;10.400;2024-02-28T12:43:33;8.20;;;6.97;;
9422;SDS011;65863;49.506;10.400;2024-02-28T12:46:18;9.30;;;7.63;;
9422;SDS011;65863;49.506;10.400;2024-02-28T12:49:02;10.73;;;7.47;;
9422;SDS011;65863;49.506;10.400;2024-02-28T12:51:46;10.83;;;9.23;;
9422;SDS011;65863;49.506;10.400;2024-02-28T12:54:32;11.97;;;10.03;;
9422;SDS011;65863;49.506;10.400;2024-02-28T12:57:16;21.37;;;16.50;;
9422;SDS011;65863;49.506;10.400;2024-02-28T13:00:01;14.87;;;11.00;;
9422;SDS011;65863;49.506;10.400;2024-02-28T13:02:45;14.73;;;11.67;;
9422;SDS011;65863;49.506;10.400;2024-02-28T13:05:29;13.63;;;11.50;;
9422;SDS011;65863;49.506;10.400;2024-02-28T13:08:13;13.87;;;11.10;;
9422;SDS011;65863;49.506;10.400;2024-02-28T13:10:59;13.50;;;10.73;;
9422;SDS011;65863;49.506;10.400;2024-02-28T13:13:43;13.17;;;10.10;;
9422;SDS011;65863;49.506;10.400;2024-02-28T13:16:27;11.87;;;10.23;;
9422;SDS011;65863;49.506;10.400;2024-02-28T13:19:11;14.77;;;11.57;;
9422;SDS011;65863;49.506;10.400;2024-02-28T13:21:55;16.73;;;11.37;;
9422;SDS011;65863;49.506;10.400;2024-02-28T13:24:39;14.20;;;11.03;;
9422;SDS011;65863;49.506;10.400;2024-02-28T13:27:24;12.13;;;9.83;;
9422;SDS011;65863;49.506;10.400;2024-02-28T13:30:08;11.80;;;9.77;;
9422;SDS011;65863;49.506;10.400;2024-02-28T13:32:55;11.40;;;9.40;;
9422;SDS011;65863;49.506;10.400;2024-02-28T13:35:40;16.80;;;11.27;;
9422;SDS011;65863;49.506;10.400;2024-02-28T13:38:24;28.37;;;10.87;;
9422;SDS011;65863;49.506;10.400;2024-02-28T13:41:08;11.50;;;9.20;;
9422;SDS011;65863;49.506;10.400;2024-02-28T13:43:52;10.83;;;8.87;;
9422;SDS011;65863;49.506;10.400;2024-02-28T13:46:37;14.27;;;11.07;;
9422;SDS011;65863;49.506;10.400;2024-02-28T13:49:25;15.87;;;10.83;;
9422;SDS011;65863;49.506;10.400;2024-02-28T13:52:10;12.83;;;11.03;;
9422;SDS011;65863;49.506;10.400;2024-02-28T13:54:55;15.37;;;11.03;;
9422;SDS011;65863;49.506;10.400;2024-02-28T13:57:40;11.87;;;9.87;;
9422;SDS011;65863;49.506;10.400;2024-02-28T14:00:26;13.33;;;10.40;;
9422;SDS011;65863;49.506;10.400;2024-02-28T14:03:10;12.23;;;10.07;;
9422;SDS011;65863;49.506;10.400;2024-02-28T14:05:54;14.13;;;11.17;;
9422;SDS011;65863;49.506;10.400;2024-02-28T14:08:37;12.77;;;10.43;;
9422;SDS011;65863;49.506;10.400;2024-02-28T14:11:22;12.63;;;10.20;;
9422;SDS011;65863;49.506;10.400;2024-02-28T14:14:06;15.10;;;11.97;;
9422;SDS011;65863;49.506;10.400;2024-02-28T14:16:51;11.23;;;9.73;;
9422;SDS011;65863;49.506;10.400;2024-02-28T14:19:35;14.03;;;9.90;;
9422;SDS011;65863;49.506;10.400;2024-02-28T14:22:21;16.30;;;10.00;;
9422;SDS011;65863;49.506;10.400;2024-02-28T14:25:05;15.13;;;10.20;;
9422;SDS011;65863;49.506;10.400;2024-02-28T14:27:49;11.10;;;9.33;;
9422;SDS011;65863;49.506;10.400;2024-02-28T14:30:33;11.43;;;9.27;;
9422;SDS011;65863;49.506;10.400;2024-02-28T14:33:17;13.13;;;10.00;;
9422;SDS011;65863;49.506;10.400;2024-02-28T14:36:04;10.43;;;9.23;;
9422;SDS011;65863;49.506;10.400;2024-02-28T14:38:49;10.73;;;9.17;;
9422;SDS011;65863;49.506;10.400;2024-02-28T14:41:34;10.63;;;8.87;;
9422;SDS011;65863;49.506;10.400;2024-02-28T14:44:18;11.13;;;9.47;;
9422;SDS011;65863;49.506;10.400;2024-02-28T14:47:03;10.90;;;9.33;;
9422;SDS011;65863;49.506;10.400;2024-02-28T14:49:48;10.13;;;8.87;;
9422;SDS011;65863;49.506;10.400;2024-02-28T14:52:32;10.90;;;8.97;;
9422;SDS011;65863;49.506;10.400;2024-02-28T14:55:16;9.77;;;8.53;;
9422;SDS011;65863;49.506;10.400;2024-02-28T14:58:02;10.03;;;8.77;;
9422;SDS011;65863;49.506;10.400;2024-02-28T15:00:46;12.50;;;9.20;;
9422;SDS011;65863;49.506;10.400;2024-02-28T15:03:33;13.57;;;8.67;;
9422;SDS011;65863;49.506;10.400;2024-02-28T15:06:17;9.90;;;8.60;;
9422;SDS011;65863;49.506;10.400;2024-02-28T15:09:02;10.40;;;8.90;;
9422;SDS011;65863;49.506;10.400;2024-02-28T15:11:51;11.00;;;9.00;;
9422;SDS011;65863;49.506;10.400;2024-02-28T15:14:36;10.90;;;9.53;;
9422;SDS011;65863;49.506;10.400;2024-02-28T15:17:21;13.40;;;9.50;;
9422;SDS011;65863;49.506;10.400;2024-02-28T15:20:07;12.57;;;9.43;;
9422;SDS011;65863;49.506;10.400;2024-02-28T15:22:52;11.07;;;9.17;;
9422;SDS011;65863;49.506;10.400;2024-02-28T15:25:36;13.70;;;10.80;;
9422;SDS011;65863;49.506;10.400;2024-02-28T15:28:21;12.77;;;10.47;;
9422;SDS011;65863;49.506;10.400;2024-02-28T15:31:08;14.37;;;9.83;;
9422;SDS011;65863;49.506;10.400;2024-02-28T15:33:52;10.97;;;9.50;;
9422;SDS011;65863;49.506;10.400;2024-02-28T15:36:37;11.27;;;9.40;;
9422;SDS011;65863;49.506;10.400;2024-02-28T15:39:23;12.63;;;9.83;;
9422;SDS011;65863;49.506;10.400;2024-02-28T15:42:07;15.67;;;10.37;;
9422;SDS011;65863;49.506;10.400;2024-02-28T15:44:57;14.17;;;9.93;;
9422;SDS011;65863;49.506;10.400;2024-02-28T15:47:42;11.67;;;10.17;;
9422;SDS011;65863;49.506;10.400;2024-02-28T15:50:26;12.73;;;10.60;;
9422;SDS011;65863;49.506;10.400;2024-02-28T15:53:13;12.97;;;11.00;;
9422;SDS011;65863;49.506;10.400;2024-02-28T15:55:57;12.67;;;10.80;;
9422;SDS011;65863;49.506;10.400;2024-02-28T15:58:41;12.93;;;10.90;;
9422;SDS011;65863;49.506;10.400;2024-02-28T16:01:28;14.90;;;10.07;;
9422;SDS011;65863;49.506;10.400;2024-02-28T16:04:12;12.90;;;9.43;;
9422;SDS011;65863;49.506;10.400;2024-02-28T16:06:56;13.20;;;9.30;;